sensor_id;sensor_type;location;lat;lon;timestamp;P1;durP1;ratioP1;P2;durP2;ratioP2
27543;SDS011;17996;51.056;3.656;2023-05-07T00:02:21;19.58;;;6.00;;
27543;SDS011;17996;51.056;3.656;2023-05-07T00:04:47;13.70;;;4.88;;
27543;SDS011;17996;51.056;3.656;2023-05-07T00:07:14;15.77;;;5.35;;
27543;SDS011;17996;51.056;3.656;2023-05-07T00:09:40;19.50;;;5.82;;
27543;SDS011;17996;51.056;3.656;2023-05-07T00:12:06;20.73;;;5.97;;
27543;SDS011;17996;51.056;3.656;2023-05-07T00:14:32;13.10;;;5.05;;
27543;SDS011;17996;51.056;3.656;2023-05-07T00:16:57;15.75;;;5.85;;
27543;SDS011;17996;51.056;3.656;2023-05-07T00:19:23;22.42;;;5.85;;
27543;SDS011;17996;51.056;3.656;2023-05-07T00:21:49;13.57;;;4.90;;
27543;SDS011;17996;51.056;3.656;2023-05-07T00:24:15;16.67;;;4.82;;
27543;SDS011;17996;51.056;3.656;2023-05-07T00:26:41;16.20;;;5.28;;
27543;SDS011;17996;51.056;3.656;2023-05-07T00:29:06;12.90;;;5.20;;
27543;SDS011;17996;51.056;3.656;2023-05-07T00:31:32;13.60;;;4.80;;
27543;SDS011;17996;51.056;3.656;2023-05-07T00:33:58;12.15;;;4.65;;
27543;SDS011;17996;51.056;3.656;2023-05-07T00:36:23;11.15;;;4.43;;
27543;SDS011;17996;51.056;3.656;2023-05-07T00:38:49;13.50;;;5.20;;
27543;SDS011;17996;51.056;3.656;2023-05-07T00:41:15;14.95;;;5.47;;
27543;SDS011;17996;51.056;3.656;2023-05-07T00:43:40;17.27;;;5.63;;
27543;SDS011;17996;51.056;3.656;2023-05-07T00:46:06;10.93;;;4.65;;
27543;SDS011;17996;51.056;3.656;2023-05-07T00:48:32;22.10;;;5.78;;
27543;SDS011;17996;51.056;3.656;2023-05-07T00:50:57;19.88;;;6.15;;
27543;SDS011;17996;51.056;3.656;2023-05-07T00:53:23;13.02;;;4.82;;
27543;SDS011;17996;51.056;3.656;2023-05-07T00:55:50;22.25;;;5.78;;
27543;SDS011;17996;51.056;3.656;2023-05-07T00:58:16;14.13;;;5.47;;
27543;SDS011;17996;51.056;3.656;2023-05-07T01:00:42;15.63;;;5.72;;
27543;SDS011;17996;51.056;3.656;2023-05-07T01:03:07;15.77;;;5.65;;
27543;SDS011;17996;51.056;3.656;2023-05-07T01:05:33;17.63;;;6.03;;
27543;SDS011;17996;51.056;3.656;2023-05-07T01:08:01;18.50;;;6.35;;
27543;SDS011;17996;51.056;3.656;2023-05-07T01:10:27;15.27;;;5.47;;
27543;SDS011;17996;51.056;3.656;2023-05-07T01:12:55;20.07;;;5.67;;
27543;SDS011;17996;51.056;3.656;2023-05-07T01:15:23;21.08;;;6.78;;
27543;SDS011;17996;51.056;3.656;2023-05-07T01:17:49;17.92;;;5.40;;
27543;SDS011;17996;51.056;3.656;2023-05-07T01:20:15;17.55;;;5.53;;
27543;SDS011;17996;51.056;3.656;2023-05-07T01:22:40;11.20;;;5.65;;
27543;SDS011;17996;51.056;3.656;2023-05-07T01:25:08;14.45;;;5.75;;
27543;SDS011;17996;51.056;3.656;2023-05-07T01:27:34;16.73;;;6.18;;
27543;SDS011;17996;51.056;3.656;2023-05-07T01:30:01;13.95;;;5.75;;
27543;SDS011;17996;51.056;3.656;2023-05-07T01:32:44;18.13;;;5.38;;
27543;SDS011;17996;51.056;3.656;2023-05-07T01:35:20;16.73;;;6.37;;
27543;SDS011;17996;51.056;3.656;2023-05-07T01:37:47;18.42;;;6.82;;
27543;SDS011;17996;51.056;3.656;2023-05-07T01:40:14;14.88;;;5.90;;
27543;SDS011;17996;51.056;3.656;2023-05-07T01:42:41;18.60;;;6.82;;
27543;SDS011;17996;51.056;3.656;2023-05-07T01:45:08;15.63;;;6.60;;
27543;SDS011;17996;51.056;3.656;2023-05-07T01:47:34;14.98;;;6.05;;
27543;SDS011;17996;51.056;3.656;2023-05-07T01:50:02;17.38;;;6.00;;
27543;SDS011;17996;51.056;3.656;2023-05-07T01:52:30;16.88;;;5.65;;
27543;SDS011;17996;51.056;3.656;2023-05-07T01:54:56;14.23;;;5.22;;
27543;SDS011;17996;51.056;3.656;2023-05-07T01:57:22;17.75;;;5.47;;
27543;SDS011;17996;51.056;3.656;2023-05-07T01:59:48;13.05;;;4.88;;
27543;SDS011;17996;51.056;3.656;2023-05-07T02:02:13;14.07;;;5.72;;
27543;SDS011;17996;51.056;3.656;2023-05-07T02:04:39;12.32;;;6.15;;
27543;SDS011;17996;51.056;3.656;2023-05-07T02:07:05;15.98;;;5.88;;
27543;SDS011;17996;51.056;3.656;2023-05-07T02:09:30;16.48;;;5.63;;
27543;SDS011;17996;51.056;3.656;2023-05-07T02:11:56;11.30;;;5.75;;
27543;SDS011;17996;51.056;3.656;2023-05-07T02:14:22;17.13;;;6.18;;
27543;SDS011;17996;51.056;3.656;2023-05-07T02:16:47;15.10;;;5.40;;
27543;SDS011;17996;51.056;3.656;2023-05-07T02:19:13;16.75;;;5.45;;
27543;SDS011;17996;51.056;3.656;2023-05-07T02:21:39;14.05;;;5.72;;
27543;SDS011;17996;51.056;3.656;2023-05-07T02:24:05;18.30;;;5.63;;
27543;SDS011;17996;51.056;3.656;2023-05-07T02:26:30;16.67;;;5.22;;
27543;SDS011;17996;51.056;3.656;2023-05-07T02:28:56;19.05;;;7.03;;
27543;SDS011;17996;51.056;3.656;2023-05-07T02:31:22;14.85;;;6.20;;
27543;SDS011;17996;51.056;3.656;2023-05-07T02:33:48;16.27;;;5.75;;
27543;SDS011;17996;51.056;3.656;2023-05-07T02:36:13;13.52;;;5.85;;
27543;SDS011;17996;51.056;3.656;2023-05-07T02:38:39;10.38;;;5.40;;
27543;SDS011;17996;51.056;3.656;2023-05-07T02:41:05;21.35;;;6.82;;
27543;SDS011;17996;51.056;3.656;2023-05-07T02:43:30;11.68;;;5.28;;
27543;SDS011;17996;51.056;3.656;2023-05-07T02:46:03;16.38;;;5.50;;
27543;SDS011;17996;51.056;3.656;2023-05-07T02:48:29;16.02;;;6.07;;
27543;SDS011;17996;51.056;3.656;2023-05-07T02:50:55;15.38;;;5.13;;
27543;SDS011;17996;51.056;3.656;2023-05-07T02:53:22;19.23;;;5.20;;
27543;SDS011;17996;51.056;3.656;2023-05-07T02:55:50;18.42;;;5.63;;
27543;SDS011;17996;51.056;3.656;2023-05-07T02:58:16;12.82;;;5.15;;
27543;SDS011;17996;51.056;3.656;2023-05-07T03:00:41;14.73;;;5.75;;
27543;SDS011;17996;51.056;3.656;2023-05-07T03:03:07;12.65;;;5.15;;
27543;SDS011;17996;51.056;3.656;2023-05-07T03:05:33;11.75;;;5.20;;
27543;SDS011;17996;51.056;3.656;2023-05-07T03:07:58;15.18;;;5.43;;
27543;SDS011;17996;51.056;3.656;2023-05-07T03:10:24;16.45;;;5.68;;
27543;SDS011;17996;51.056;3.656;2023-05-07T03:12:50;15.52;;;6.03;;
27543;SDS011;17996;51.056;3.656;2023-05-07T03:15:15;15.15;;;6.47;;
27543;SDS011;17996;51.056;3.656;2023-05-07T03:17:41;18.83;;;6.22;;
27543;SDS011;17996;51.056;3.656;2023-05-07T03:20:07;16.70;;;5.43;;
27543;SDS011;17996;51.056;3.656;2023-05-07T03:22:34;13.68;;;6.63;;
27543;SDS011;17996;51.056;3.656;2023-05-07T03:25:00;15.98;;;7.03;;
27543;SDS011;17996;51.056;3.656;2023-05-07T03:27:26;14.77;;;6.50;;
27543;SDS011;17996;51.056;3.656;2023-05-07T03:29:51;15.57;;;5.78;;
27543;SDS011;17996;51.056;3.656;2023-05-07T03:32:17;11.43;;;5.90;;
27543;SDS011;17996;51.056;3.656;2023-05-07T03:34:42;17.73;;;6.28;;
27543;SDS011;17996;51.056;3.656;2023-05-07T03:37:08;15.30;;;5.47;;
27543;SDS011;17996;51.056;3.656;2023-05-07T03:39:34;17.23;;;6.15;;
27543;SDS011;17996;51.056;3.656;2023-05-07T03:42:00;14.38;;;6.25;;
27543;SDS011;17996;51.056;3.656;2023-05-07T03:44:26;13.85;;;5.75;;
27543;SDS011;17996;51.056;3.656;2023-05-07T03:46:51;12.32;;;6.28;;
27543;SDS011;17996;51.056;3.656;2023-05-07T03:49:17;16.77;;;5.57;;
27543;SDS011;17996;51.056;3.656;2023-05-07T03:51:43;14.30;;;5.68;;
27543;SDS011;17996;51.056;3.656;2023-05-07T03:54:08;13.18;;;6.05;;
27543;SDS011;17996;51.056;3.656;2023-05-07T03:56:34;12.60;;;6.18;;
27543;SDS011;17996;51.056;3.656;2023-05-07T03:59:00;18.25;;;6.32;;
27543;SDS011;17996;51.056;3.656;2023-05-07T04:01:26;11.80;;;5.35;;
27543;SDS011;17996;51.056;3.656;2023-05-07T04:03:52;12.43;;;5.72;;
27543;SDS011;17996;51.056;3.656;2023-05-07T04:06:17;12.40;;;5.53;;
27543;SDS011;17996;51.056;3.656;2023-05-07T04:08:43;14.68;;;6.50;;
27543;SDS011;17996;51.056;3.656;2023-05-07T04:11:09;10.50;;;5.72;;
27543;SDS011;17996;51.056;3.656;2023-05-07T04:13:34;16.13;;;5.53;;
27543;SDS011;17996;51.056;3.656;2023-05-07T04:16:01;20.20;;;6.00;;
27543;SDS011;17996;51.056;3.656;2023-05-07T04:18:28;14.40;;;5.97;;
27543;SDS011;17996;51.056;3.656;2023-05-07T04:20:54;12.13;;;5.80;;
27543;SDS011;17996;51.056;3.656;2023-05-07T04:23:20;11.13;;;5.45;;
27543;SDS011;17996;51.056;3.656;2023-05-07T04:25:45;24.15;;;6.22;;
27543;SDS011;17996;51.056;3.656;2023-05-07T04:28:11;15.13;;;7.40;;
27543;SDS011;17996;51.056;3.656;2023-05-07T04:30:37;12.50;;;5.68;;
27543;SDS011;17996;51.056;3.656;2023-05-07T04:33:03;14.40;;;5.63;;
27543;SDS011;17996;51.056;3.656;2023-05-07T04:35:29;16.83;;;5.93;;
27543;SDS011;17996;51.056;3.656;2023-05-07T04:37:55;18.75;;;6.60;;
27543;SDS011;17996;51.056;3.656;2023-05-07T04:40:20;12.13;;;5.43;;
27543;SDS011;17996;51.056;3.656;2023-05-07T04:42:46;11.20;;;5.68;;
27543;SDS011;17996;51.056;3.656;2023-05-07T04:45:12;11.45;;;6.32;;
27543;SDS011;17996;51.056;3.656;2023-05-07T04:47:38;22.80;;;7.15;;
27543;SDS011;17996;51.056;3.656;2023-05-07T04:50:04;14.50;;;6.03;;
27543;SDS011;17996;51.056;3.656;2023-05-07T04:52:31;13.27;;;5.40;;
27543;SDS011;17996;51.056;3.656;2023-05-07T04:54:58;14.55;;;5.95;;
27543;SDS011;17996;51.056;3.656;2023-05-07T04:57:25;13.75;;;6.55;;
27543;SDS011;17996;51.056;3.656;2023-05-07T04:59:51;18.42;;;6.70;;
27543;SDS011;17996;51.056;3.656;2023-05-07T05:02:17;13.88;;;6.50;;
27543;SDS011;17996;51.056;3.656;2023-05-07T05:04:43;11.70;;;7.00;;
27543;SDS011;17996;51.056;3.656;2023-05-07T05:07:09;20.10;;;8.85;;
27543;SDS011;17996;51.056;3.656;2023-05-07T05:09:34;13.00;;;8.10;;
27543;SDS011;17996;51.056;3.656;2023-05-07T05:12:00;12.90;;;7.53;;
27543;SDS011;17996;51.056;3.656;2023-05-07T05:14:26;21.85;;;7.97;;
27543;SDS011;17996;51.056;3.656;2023-05-07T05:16:51;16.45;;;7.65;;
27543;SDS011;17996;51.056;3.656;2023-05-07T05:19:17;17.60;;;8.35;;
27543;SDS011;17996;51.056;3.656;2023-05-07T05:21:43;22.70;;;8.48;;
27543;SDS011;17996;51.056;3.656;2023-05-07T05:24:08;14.57;;;6.88;;
27543;SDS011;17996;51.056;3.656;2023-05-07T05:26:34;23.08;;;7.30;;
27543;SDS011;17996;51.056;3.656;2023-05-07T05:29:00;17.55;;;6.97;;
27543;SDS011;17996;51.056;3.656;2023-05-07T05:31:25;14.20;;;7.65;;
27543;SDS011;17996;51.056;3.656;2023-05-07T05:33:51;13.23;;;6.22;;
27543;SDS011;17996;51.056;3.656;2023-05-07T05:36:17;15.20;;;6.53;;
27543;SDS011;17996;51.056;3.656;2023-05-07T05:38:43;16.08;;;5.97;;
27543;SDS011;17996;51.056;3.656;2023-05-07T05:41:09;14.82;;;6.57;;
27543;SDS011;17996;51.056;3.656;2023-05-07T05:43:35;16.50;;;6.45;;
27543;SDS011;17996;51.056;3.656;2023-05-07T05:46:01;15.35;;;6.05;;
27543;SDS011;17996;51.056;3.656;2023-05-07T05:48:28;11.27;;;6.25;;
27543;SDS011;17996;51.056;3.656;2023-05-07T05:50:54;19.20;;;7.13;;
27543;SDS011;17996;51.056;3.656;2023-05-07T05:53:20;14.45;;;7.45;;
27543;SDS011;17996;51.056;3.656;2023-05-07T05:55:46;16.05;;;6.90;;
27543;SDS011;17996;51.056;3.656;2023-05-07T05:58:11;11.98;;;6.57;;
27543;SDS011;17996;51.056;3.656;2023-05-07T06:00:37;19.55;;;7.43;;
27543;SDS011;17996;51.056;3.656;2023-05-07T06:03:03;21.00;;;8.23;;
27543;SDS011;17996;51.056;3.656;2023-05-07T06:05:29;11.35;;;6.38;;
27543;SDS011;17996;51.056;3.656;2023-05-07T06:07:54;20.88;;;7.30;;
27543;SDS011;17996;51.056;3.656;2023-05-07T06:10:20;17.77;;;7.03;;
27543;SDS011;17996;51.056;3.656;2023-05-07T06:12:46;23.58;;;7.22;;
27543;SDS011;17996;51.056;3.656;2023-05-07T06:15:12;26.58;;;8.13;;
27543;SDS011;17996;51.056;3.656;2023-05-07T06:17:38;16.25;;;8.02;;
27543;SDS011;17996;51.056;3.656;2023-05-07T06:20:03;12.70;;;7.10;;
27543;SDS011;17996;51.056;3.656;2023-05-07T06:22:29;16.30;;;7.65;;
27543;SDS011;17996;51.056;3.656;2023-05-07T06:24:55;20.10;;;7.47;;
27543;SDS011;17996;51.056;3.656;2023-05-07T06:27:21;13.05;;;6.75;;
27543;SDS011;17996;51.056;3.656;2023-05-07T06:29:47;15.90;;;7.30;;
27543;SDS011;17996;51.056;3.656;2023-05-07T06:32:13;16.33;;;6.75;;
27543;SDS011;17996;51.056;3.656;2023-05-07T06:34:39;17.08;;;6.97;;
27543;SDS011;17996;51.056;3.656;2023-05-07T06:37:06;23.73;;;7.70;;
27543;SDS011;17996;51.056;3.656;2023-05-07T06:39:31;14.27;;;7.00;;
27543;SDS011;17996;51.056;3.656;2023-05-07T06:41:58;12.88;;;6.55;;
27543;SDS011;17996;51.056;3.656;2023-05-07T06:44:25;15.52;;;6.50;;
27543;SDS011;17996;51.056;3.656;2023-05-07T06:46:50;18.40;;;6.75;;
27543;SDS011;17996;51.056;3.656;2023-05-07T06:49:16;12.15;;;6.25;;
27543;SDS011;17996;51.056;3.656;2023-05-07T06:51:42;10.60;;;5.95;;
27543;SDS011;17996;51.056;3.656;2023-05-07T06:54:08;10.70;;;6.07;;
27543;SDS011;17996;51.056;3.656;2023-05-07T06:56:33;12.88;;;6.13;;
27543;SDS011;17996;51.056;3.656;2023-05-07T06:59:00;16.55;;;6.13;;
27543;SDS011;17996;51.056;3.656;2023-05-07T07:01:27;14.55;;;6.25;;
27543;SDS011;17996;51.056;3.656;2023-05-07T07:03:53;9.55;;;5.28;;
27543;SDS011;17996;51.056;3.656;2023-05-07T07:06:19;12.68;;;6.30;;
27543;SDS011;17996;51.056;3.656;2023-05-07T07:08:45;12.85;;;5.88;;
27543;SDS011;17996;51.056;3.656;2023-05-07T07:11:10;15.02;;;6.43;;
27543;SDS011;17996;51.056;3.656;2023-05-07T07:13:36;15.90;;;6.40;;
27543;SDS011;17996;51.056;3.656;2023-05-07T07:16:02;19.33;;;6.53;;
27543;SDS011;17996;51.056;3.656;2023-05-07T07:18:28;12.15;;;6.20;;
27543;SDS011;17996;51.056;3.656;2023-05-07T07:20:54;19.85;;;6.68;;
27543;SDS011;17996;51.056;3.656;2023-05-07T07:23:19;11.85;;;5.82;;
27543;SDS011;17996;51.056;3.656;2023-05-07T07:25:45;14.30;;;7.15;;
27543;SDS011;17996;51.056;3.656;2023-05-07T07:28:11;20.65;;;6.30;;
27543;SDS011;17996;51.056;3.656;2023-05-07T07:30:38;13.02;;;5.78;;
27543;SDS011;17996;51.056;3.656;2023-05-07T07:33:04;14.00;;;6.18;;
27543;SDS011;17996;51.056;3.656;2023-05-07T07:35:30;13.60;;;5.97;;
27543;SDS011;17996;51.056;3.656;2023-05-07T07:37:56;10.25;;;6.05;;
27543;SDS011;17996;51.056;3.656;2023-05-07T07:40:22;15.68;;;5.78;;
27543;SDS011;17996;51.056;3.656;2023-05-07T07:42:48;13.38;;;5.60;;
27543;SDS011;17996;51.056;3.656;2023-05-07T07:45:14;13.70;;;5.88;;
27543;SDS011;17996;51.056;3.656;2023-05-07T07:47:40;14.90;;;6.38;;
27543;SDS011;17996;51.056;3.656;2023-05-07T07:50:06;15.05;;;6.63;;
27543;SDS011;17996;51.056;3.656;2023-05-07T07:52:32;15.20;;;5.38;;
27543;SDS011;17996;51.056;3.656;2023-05-07T07:54:58;13.75;;;5.90;;
27543;SDS011;17996;51.056;3.656;2023-05-07T07:57:24;13.18;;;6.25;;
27543;SDS011;17996;51.056;3.656;2023-05-07T07:59:50;11.15;;;5.43;;
27543;SDS011;17996;51.056;3.656;2023-05-07T08:02:16;17.45;;;6.65;;
27543;SDS011;17996;51.056;3.656;2023-05-07T08:04:42;11.32;;;5.68;;
27543;SDS011;17996;51.056;3.656;2023-05-07T08:07:10;14.73;;;6.18;;
27543;SDS011;17996;51.056;3.656;2023-05-07T08:09:37;14.32;;;6.53;;
27543;SDS011;17996;51.056;3.656;2023-05-07T08:12:03;14.10;;;5.95;;
27543;SDS011;17996;51.056;3.656;2023-05-07T08:14:30;15.55;;;5.43;;
27543;SDS011;17996;51.056;3.656;2023-05-07T08:16:55;12.43;;;5.85;;
27543;SDS011;17996;51.056;3.656;2023-05-07T08:19:21;19.63;;;5.85;;
27543;SDS011;17996;51.056;3.656;2023-05-07T08:21:47;15.82;;;6.28;;
27543;SDS011;17996;51.056;3.656;2023-05-07T08:24:16;12.90;;;5.35;;
27543;SDS011;17996;51.056;3.656;2023-05-07T08:26:43;14.63;;;5.60;;
27543;SDS011;17996;51.056;3.656;2023-05-07T08:29:10;11.43;;;5.55;;
27543;SDS011;17996;51.056;3.656;2023-05-07T08:31:36;18.42;;;5.88;;
27543;SDS011;17996;51.056;3.656;2023-05-07T08:34:03;13.73;;;5.88;;
27543;SDS011;17996;51.056;3.656;2023-05-07T08:36:29;12.07;;;5.90;;
27543;SDS011;17996;51.056;3.656;2023-05-07T08:38:54;10.18;;;4.63;;
27543;SDS011;17996;51.056;3.656;2023-05-07T08:41:20;13.85;;;5.95;;
27543;SDS011;17996;51.056;3.656;2023-05-07T08:43:49;11.77;;;5.20;;
27543;SDS011;17996;51.056;3.656;2023-05-07T08:46:22;16.52;;;5.45;;
27543;SDS011;17996;51.056;3.656;2023-05-07T08:48:50;12.48;;;4.75;;
27543;SDS011;17996;51.056;3.656;2023-05-07T08:51:20;10.82;;;4.78;;
27543;SDS011;17996;51.056;3.656;2023-05-07T08:53:47;11.65;;;5.10;;
27543;SDS011;17996;51.056;3.656;2023-05-07T08:56:14;14.75;;;5.50;;
27543;SDS011;17996;51.056;3.656;2023-05-07T08:58:41;13.70;;;5.32;;
27543;SDS011;17996;51.056;3.656;2023-05-07T09:01:08;12.05;;;5.43;;
27543;SDS011;17996;51.056;3.656;2023-05-07T09:03:38;14.77;;;5.28;;
27543;SDS011;17996;51.056;3.656;2023-05-07T09:06:04;13.43;;;5.40;;
27543;SDS011;17996;51.056;3.656;2023-05-07T09:08:32;12.50;;;5.80;;
27543;SDS011;17996;51.056;3.656;2023-05-07T09:10:58;18.83;;;5.53;;
27543;SDS011;17996;51.056;3.656;2023-05-07T09:13:24;13.65;;;4.65;;
27543;SDS011;17996;51.056;3.656;2023-05-07T09:15:50;15.57;;;5.32;;
27543;SDS011;17996;51.056;3.656;2023-05-07T09:18:16;14.57;;;5.70;;
27543;SDS011;17996;51.056;3.656;2023-05-07T09:20:41;13.65;;;5.45;;
27543;SDS011;17996;51.056;3.656;2023-05-07T09:23:08;9.45;;;4.22;;
27543;SDS011;17996;51.056;3.656;2023-05-07T09:25:34;13.48;;;5.00;;
27543;SDS011;17996;51.056;3.656;2023-05-07T09:28:02;10.23;;;4.68;;
27543;SDS011;17996;51.056;3.656;2023-05-07T09:30:32;20.05;;;4.50;;
27543;SDS011;17996;51.056;3.656;2023-05-07T09:32:59;13.80;;;4.65;;
27543;SDS011;17996;51.056;3.656;2023-05-07T09:35:26;10.13;;;4.32;;
27543;SDS011;17996;51.056;3.656;2023-05-07T09:40:24;9.10;;;4.50;;
27543;SDS011;17996;51.056;3.656;2023-05-07T09:42:52;11.20;;;4.50;;
27543;SDS011;17996;51.056;3.656;2023-05-07T09:45:25;9.48;;;4.32;;
27543;SDS011;17996;51.056;3.656;2023-05-07T09:47:57;9.73;;;4.28;;
27543;SDS011;17996;51.056;3.656;2023-05-07T09:50:25;12.45;;;4.60;;
27543;SDS011;17996;51.056;3.656;2023-05-07T09:52:57;8.38;;;4.43;;
27543;SDS011;17996;51.056;3.656;2023-05-07T09:55:23;10.23;;;4.00;;
27543;SDS011;17996;51.056;3.656;2023-05-07T09:57:50;9.40;;;4.05;;
27543;SDS011;17996;51.056;3.656;2023-05-07T10:00:20;13.10;;;3.80;;
27543;SDS011;17996;51.056;3.656;2023-05-07T10:02:47;10.10;;;4.43;;
27543;SDS011;17996;51.056;3.656;2023-05-07T10:05:16;9.35;;;4.20;;
27543;SDS011;17996;51.056;3.656;2023-05-07T10:07:43;11.93;;;3.90;;
27543;SDS011;17996;51.056;3.656;2023-05-07T10:10:09;13.52;;;4.57;;
27543;SDS011;17996;51.056;3.656;2023-05-07T10:12:36;10.65;;;4.13;;
27543;SDS011;17996;51.056;3.656;2023-05-07T10:15:10;8.70;;;3.35;;
27543;SDS011;17996;51.056;3.656;2023-05-07T10:17:39;7.43;;;3.75;;
27543;SDS011;17996;51.056;3.656;2023-05-07T10:20:06;10.88;;;3.30;;
27543;SDS011;17996;51.056;3.656;2023-05-07T10:22:37;8.55;;;3.40;;
27543;SDS011;17996;51.056;3.656;2023-05-07T10:25:12;5.97;;;2.50;;
27543;SDS011;17996;51.056;3.656;2023-05-07T10:27:45;6.65;;;2.75;;
27543;SDS011;17996;51.056;3.656;2023-05-07T10:30:27;9.65;;;2.70;;
27543;SDS011;17996;51.056;3.656;2023-05-07T10:33:22;7.72;;;3.03;;
27543;SDS011;17996;51.056;3.656;2023-05-07T10:35:51;7.78;;;2.35;;
27543;SDS011;17996;51.056;3.656;2023-05-07T10:38:23;10.60;;;3.00;;
27543;SDS011;17996;51.056;3.656;2023-05-07T10:40:50;8.25;;;2.70;;
27543;SDS011;17996;51.056;3.656;2023-05-07T10:43:16;7.82;;;2.88;;
27543;SDS011;17996;51.056;3.656;2023-05-07T10:45:42;10.35;;;2.20;;
27543;SDS011;17996;51.056;3.656;2023-05-07T10:48:14;8.18;;;3.08;;
27543;SDS011;17996;51.056;3.656;2023-05-07T10:50:41;4.43;;;2.60;;
27543;SDS011;17996;51.056;3.656;2023-05-07T10:53:26;5.60;;;2.60;;
27543;SDS011;17996;51.056;3.656;2023-05-07T10:56:23;9.02;;;2.65;;
27543;SDS011;17996;51.056;3.656;2023-05-07T10:58:45;11.45;;;2.60;;
27543;SDS011;17996;51.056;3.656;2023-05-07T11:01:11;6.93;;;2.55;;
27543;SDS011;17996;51.056;3.656;2023-05-07T11:04:13;4.88;;;2.72;;
27543;SDS011;17996;51.056;3.656;2023-05-07T11:06:47;7.57;;;2.95;;
27543;SDS011;17996;51.056;3.656;2023-05-07T11:17:29;7.43;;;2.78;;
27543;SDS011;17996;51.056;3.656;2023-05-07T11:20:00;4.55;;;2.15;;
27543;SDS011;17996;51.056;3.656;2023-05-07T11:25:01;9.43;;;2.72;;
27543;SDS011;17996;51.056;3.656;2023-05-07T11:27:28;9.35;;;3.40;;
27543;SDS011;17996;51.056;3.656;2023-05-07T11:29:54;6.55;;;2.72;;
27543;SDS011;17996;51.056;3.656;2023-05-07T11:34:54;8.13;;;3.13;;
27543;SDS011;17996;51.056;3.656;2023-05-07T11:37:20;6.68;;;2.50;;
27543;SDS011;17996;51.056;3.656;2023-05-07T11:39:47;11.15;;;2.88;;
27543;SDS011;17996;51.056;3.656;2023-05-07T11:42:27;6.57;;;2.80;;
27543;SDS011;17996;51.056;3.656;2023-05-07T11:44:53;7.55;;;2.75;;
27543;SDS011;17996;51.056;3.656;2023-05-07T11:47:19;5.90;;;3.03;;
27543;SDS011;17996;51.056;3.656;2023-05-07T11:49:47;5.55;;;2.53;;
27543;SDS011;17996;51.056;3.656;2023-05-07T11:52:14;5.55;;;2.80;;
27543;SDS011;17996;51.056;3.656;2023-05-07T11:54:40;7.38;;;2.30;;
27543;SDS011;17996;51.056;3.656;2023-05-07T11:57:05;9.18;;;2.80;;
27543;SDS011;17996;51.056;3.656;2023-05-07T11:59:38;8.48;;;2.90;;
27543;SDS011;17996;51.056;3.656;2023-05-07T12:02:05;6.45;;;2.55;;
27543;SDS011;17996;51.056;3.656;2023-05-07T12:04:32;5.18;;;2.58;;
27543;SDS011;17996;51.056;3.656;2023-05-07T12:06:57;7.03;;;2.63;;
27543;SDS011;17996;51.056;3.656;2023-05-07T12:09:23;7.15;;;2.83;;
27543;SDS011;17996;51.056;3.656;2023-05-07T12:11:49;4.00;;;2.50;;
27543;SDS011;17996;51.056;3.656;2023-05-07T12:14:17;6.10;;;2.60;;
27543;SDS011;17996;51.056;3.656;2023-05-07T12:16:43;12.57;;;2.80;;
27543;SDS011;17996;51.056;3.656;2023-05-07T12:19:10;5.97;;;2.55;;
27543;SDS011;17996;51.056;3.656;2023-05-07T12:21:39;10.93;;;2.88;;
27543;SDS011;17996;51.056;3.656;2023-05-07T12:24:05;12.70;;;2.88;;
27543;SDS011;17996;51.056;3.656;2023-05-07T12:26:33;6.05;;;2.40;;
27543;SDS011;17996;51.056;3.656;2023-05-07T12:29:05;4.80;;;2.53;;
27543;SDS011;17996;51.056;3.656;2023-05-07T12:31:31;4.75;;;2.20;;
27543;SDS011;17996;51.056;3.656;2023-05-07T12:33:57;4.63;;;2.85;;
27543;SDS011;17996;51.056;3.656;2023-05-07T12:36:23;5.78;;;2.35;;
27543;SDS011;17996;51.056;3.656;2023-05-07T12:38:49;5.95;;;2.50;;
27543;SDS011;17996;51.056;3.656;2023-05-07T12:41:15;8.98;;;2.63;;
27543;SDS011;17996;51.056;3.656;2023-05-07T12:43:44;5.13;;;2.60;;
27543;SDS011;17996;51.056;3.656;2023-05-07T12:46:11;3.55;;;2.10;;
27543;SDS011;17996;51.056;3.656;2023-05-07T12:48:45;4.90;;;2.85;;
27543;SDS011;17996;51.056;3.656;2023-05-07T12:51:11;4.40;;;2.25;;
27543;SDS011;17996;51.056;3.656;2023-05-07T12:53:42;5.25;;;2.40;;
27543;SDS011;17996;51.056;3.656;2023-05-07T12:56:08;5.13;;;2.45;;
27543;SDS011;17996;51.056;3.656;2023-05-07T12:58:35;7.50;;;2.67;;
27543;SDS011;17996;51.056;3.656;2023-05-07T13:01:03;4.32;;;2.50;;
27543;SDS011;17996;51.056;3.656;2023-05-07T13:03:32;4.50;;;2.30;;
27543;SDS011;17996;51.056;3.656;2023-05-07T13:06:04;4.72;;;2.53;;
27543;SDS011;17996;51.056;3.656;2023-05-07T13:08:32;5.10;;;2.72;;
27543;SDS011;17996;51.056;3.656;2023-05-07T13:11:01;5.80;;;2.38;;
27543;SDS011;17996;51.056;3.656;2023-05-07T13:13:31;7.60;;;3.05;;
27543;SDS011;17996;51.056;3.656;2023-05-07T13:15:58;5.97;;;2.60;;
27543;SDS011;17996;51.056;3.656;2023-05-07T13:18:24;5.30;;;3.30;;
27543;SDS011;17996;51.056;3.656;2023-05-07T13:20:50;4.78;;;2.67;;
27543;SDS011;17996;51.056;3.656;2023-05-07T13:23:17;8.95;;;2.83;;
27543;SDS011;17996;51.056;3.656;2023-05-07T13:25:42;22.30;;;4.22;;
27543;SDS011;17996;51.056;3.656;2023-05-07T13:28:08;14.75;;;3.20;;
27543;SDS011;17996;51.056;3.656;2023-05-07T13:30:34;6.22;;;2.75;;
27543;SDS011;17996;51.056;3.656;2023-05-07T13:33:00;9.00;;;3.42;;
27543;SDS011;17996;51.056;3.656;2023-05-07T13:35:25;6.63;;;3.25;;
27543;SDS011;17996;51.056;3.656;2023-05-07T13:37:51;6.85;;;3.35;;
27543;SDS011;17996;51.056;3.656;2023-05-07T13:40:18;9.30;;;3.35;;
27543;SDS011;17996;51.056;3.656;2023-05-07T13:42:44;8.35;;;2.85;;
27543;SDS011;17996;51.056;3.656;2023-05-07T13:45:10;7.78;;;3.50;;
27543;SDS011;17996;51.056;3.656;2023-05-07T13:50:10;4.65;;;3.10;;
27543;SDS011;17996;51.056;3.656;2023-05-07T13:52:40;7.78;;;3.13;;
27543;SDS011;17996;51.056;3.656;2023-05-07T13:55:08;6.00;;;3.03;;
27543;SDS011;17996;51.056;3.656;2023-05-07T13:57:37;5.43;;;3.45;;
27543;SDS011;17996;51.056;3.656;2023-05-07T14:00:03;7.18;;;4.03;;
27543;SDS011;17996;51.056;3.656;2023-05-07T14:02:30;13.23;;;6.53;;
27543;SDS011;17996;51.056;3.656;2023-05-07T14:04:56;14.32;;;7.50;;
27543;SDS011;17996;51.056;3.656;2023-05-07T14:07:22;18.10;;;8.55;;
27543;SDS011;17996;51.056;3.656;2023-05-07T14:09:48;17.13;;;9.27;;
27543;SDS011;17996;51.056;3.656;2023-05-07T14:12:13;15.60;;;10.27;;
27543;SDS011;17996;51.056;3.656;2023-05-07T14:14:39;20.17;;;12.05;;
27543;SDS011;17996;51.056;3.656;2023-05-07T14:17:05;22.42;;;11.98;;
27543;SDS011;17996;51.056;3.656;2023-05-07T14:19:30;28.70;;;12.23;;
27543;SDS011;17996;51.056;3.656;2023-05-07T14:21:56;22.60;;;13.75;;
27543;SDS011;17996;51.056;3.656;2023-05-07T14:24:22;21.13;;;13.55;;
27543;SDS011;17996;51.056;3.656;2023-05-07T14:26:49;19.75;;;12.77;;
27543;SDS011;17996;51.056;3.656;2023-05-07T14:29:14;22.23;;;12.75;;
27543;SDS011;17996;51.056;3.656;2023-05-07T14:34:09;27.88;;;12.20;;
27543;SDS011;17996;51.056;3.656;2023-05-07T14:36:35;17.65;;;11.45;;
27543;SDS011;17996;51.056;3.656;2023-05-07T14:39:01;19.83;;;9.85;;
27543;SDS011;17996;51.056;3.656;2023-05-07T14:41:27;13.38;;;9.18;;
27543;SDS011;17996;51.056;3.656;2023-05-07T14:43:53;17.42;;;8.43;;
27543;SDS011;17996;51.056;3.656;2023-05-07T14:46:19;14.57;;;8.82;;
27543;SDS011;17996;51.056;3.656;2023-05-07T14:48:45;17.13;;;8.75;;
27543;SDS011;17996;51.056;3.656;2023-05-07T14:53:40;11.55;;;8.38;;
27543;SDS011;17996;51.056;3.656;2023-05-07T14:56:06;16.80;;;8.70;;
27543;SDS011;17996;51.056;3.656;2023-05-07T14:58:33;14.43;;;8.95;;
27543;SDS011;17996;51.056;3.656;2023-05-07T15:00:59;13.88;;;9.13;;